createdAt,value
2023-03-16T00:00:52.552Z,5.50
2023-03-16T00:03:21.503Z,5.40
2023-03-16T00:05:52.358Z,5.40
2023-03-16T00:08:21.267Z,5.40
2023-03-16T00:10:54.056Z,5.40
2023-03-16T00:13:24.861Z,5.40
2023-03-16T00:15:54.687Z,5.40
2023-03-16T00:18:27.138Z,5.40
2023-03-16T00:20:58.217Z,5.30
2023-03-16T00:23:28.129Z,5.30
2023-03-16T00:25:59.671Z,5.40
2023-03-16T00:28:30.115Z,5.40
2023-03-16T00:30:59.135Z,5.40
2023-03-16T00:33:27.949Z,5.40
2023-03-16T00:36:02.596Z,5.40
2023-03-16T00:38:32.913Z,5.40
2023-03-16T00:41:04.159Z,5.40
2023-03-16T00:43:40.672Z,5.40
2023-03-16T00:46:11.907Z,5.40
2023-03-16T00:48:42.676Z,5.40
2023-03-16T00:51:14.668Z,5.40
2023-03-16T00:53:44.698Z,5.40
2023-03-16T00:56:15.171Z,5.40
2023-03-16T00:58:44.653Z,5.40
2023-03-16T01:01:15.081Z,5.40
2023-03-16T01:03:43.945Z,5.40
2023-03-16T01:06:14.164Z,5.40
2023-03-16T01:08:44.998Z,5.40
2023-03-16T01:11:17.552Z,5.40
2023-03-16T01:13:48.041Z,5.40
2023-03-16T01:16:18.824Z,5.40
2023-03-16T01:18:47.739Z,5.40
2023-03-16T01:21:16.678Z,5.40
2023-03-16T01:23:45.469Z,5.40
2023-03-16T01:26:17.056Z,5.40
2023-03-16T01:28:46.107Z,5.40
2023-03-16T01:31:16.258Z,5.40
2023-03-16T01:33:45.460Z,5.40
2023-03-16T01:36:20.043Z,5.40
2023-03-16T01:38:55.666Z,5.40
2023-03-16T01:41:28.652Z,5.40
2023-03-16T01:43:58.318Z,5.40
2023-03-16T01:46:28.801Z,5.40
2023-03-16T01:49:08.116Z,5.40
2023-03-16T01:51:43.138Z,5.40
2023-03-16T01:54:18.773Z,5.40
2023-03-16T01:56:55.210Z,5.40
2023-03-16T01:59:28.628Z,5.40
2023-03-16T02:01:58.997Z,5.40
2023-03-16T02:04:39.743Z,5.40
2023-03-16T02:07:10.049Z,5.40
2023-03-16T02:09:43.359Z,5.40
2023-03-16T02:12:18.333Z,5.40
2023-03-16T02:14:52.514Z,5.40
2023-03-16T02:17:23.829Z,5.40
2023-03-16T02:20:07.144Z,5.40
2023-03-16T02:22:42.188Z,5.50
2023-03-16T02:25:11.577Z,5.40
2023-03-16T02:27:51.707Z,5.40
2023-03-16T02:30:23.029Z,5.50
2023-03-16T02:32:59.900Z,5.50
2023-03-16T02:35:28.499Z,5.50
2023-03-16T02:37:57.201Z,5.50
2023-03-16T02:40:33.243Z,5.50
2023-03-16T02:43:09.828Z,5.60
2023-03-16T02:45:47.843Z,5.50
2023-03-16T02:48:26.800Z,5.50
2023-03-16T02:50:55.945Z,5.40
2023-03-16T02:53:25.177Z,5.40
2023-03-16T02:55:54.510Z,5.40
2023-03-16T02:58:23.132Z,5.40
2023-03-16T03:00:53.233Z,5.40
2023-03-16T03:03:21.734Z,5.40
2023-03-16T03:05:50.225Z,5.40
2023-03-16T03:08:20.352Z,5.40
2023-03-16T03:10:49.319Z,5.40
2023-03-16T03:13:18.037Z,5.50
2023-03-16T03:15:46.649Z,5.40
2023-03-16T03:18:16.721Z,5.40
2023-03-16T03:20:45.764Z,5.40
2023-03-16T03:23:15.432Z,5.40
2023-03-16T03:25:45.259Z,5.40
2023-03-16T03:28:15.389Z,5.40
2023-03-16T03:30:44.313Z,5.40
2023-03-16T03:33:12.940Z,5.40
2023-03-16T03:35:43.047Z,5.40
2023-03-16T03:38:12.059Z,5.30
2023-03-16T03:40:44.913Z,5.30
2023-03-16T03:43:15.913Z,5.50
2023-03-16T03:45:46.594Z,5.30
2023-03-16T03:48:15.585Z,5.30
2023-03-16T03:50:45.401Z,5.20
2023-03-16T03:53:32.723Z,5.20
2023-03-16T03:56:33.610Z,5.20
2023-03-16T03:59:02.263Z,5.10
2023-03-16T04:01:56.862Z,5.10
2023-03-16T04:04:29.115Z,5.10
2023-03-16T04:07:00.186Z,5.10
2023-03-16T04:09:28.671Z,5.20
2023-03-16T04:11:57.811Z,5.00
2023-03-16T04:14:27.736Z,5.00
2023-03-16T04:16:56.416Z,5.00
2023-03-16T04:19:26.015Z,5.00
2023-03-16T04:21:56.695Z,5.00
2023-03-16T04:24:27.308Z,4.90
2023-03-16T04:26:55.978Z,4.90
2023-03-16T04:29:25.344Z,4.90
2023-03-16T04:31:55.127Z,4.90
2023-03-16T04:34:25.681Z,4.90
2023-03-16T04:36:58.227Z,4.90
2023-03-16T04:39:28.799Z,4.90
2023-03-16T04:41:57.255Z,5.00
2023-03-16T04:44:27.697Z,4.90
2023-03-16T04:46:56.226Z,4.90
2023-03-16T04:49:27.254Z,4.90
2023-03-16T04:51:55.742Z,5.00
2023-03-16T04:54:24.233Z,5.00
2023-03-16T04:56:54.053Z,5.00
2023-03-16T04:59:41.593Z,5.00
2023-03-16T05:02:39.528Z,5.00
2023-03-16T05:05:08.715Z,5.00
2023-03-16T05:07:42.916Z,5.00
2023-03-16T05:10:13.130Z,5.10
2023-03-16T05:12:43.825Z,5.10
2023-03-16T05:15:13.773Z,5.10
2023-03-16T05:17:43.931Z,5.10
2023-03-16T05:20:17.702Z,5.10
2023-03-16T05:22:52.729Z,5.10
2023-03-16T05:25:41.429Z,5.10
2023-03-16T05:28:13.689Z,5.10
2023-03-16T05:30:48.061Z,5.10
2023-03-16T05:33:22.247Z,5.10
2023-03-16T05:35:55.174Z,5.10
2023-03-16T05:38:24.941Z,5.20
2023-03-16T05:40:54.337Z,5.10
2023-03-16T05:43:40.611Z,5.10
2023-03-16T05:46:09.492Z,5.10
2023-03-16T05:48:38.693Z,5.10
2023-03-16T05:51:08.678Z,5.10
2023-03-16T05:53:37.238Z,5.10
2023-03-16T05:56:16.457Z,5.10
2023-03-16T05:58:48.683Z,5.10
2023-03-16T06:01:17.162Z,5.10
2023-03-16T06:03:46.429Z,5.10
2023-03-16T06:06:22.546Z,5.10
2023-03-16T06:09:06.445Z,5.10
2023-03-16T06:11:34.991Z,5.10
2023-03-16T06:14:05.183Z,5.10
2023-03-16T06:16:33.760Z,5.10
2023-03-16T06:19:02.360Z,5.10
2023-03-16T06:21:32.776Z,5.20
2023-03-16T06:24:09.284Z,5.20
2023-03-16T06:26:38.363Z,5.20
2023-03-16T06:29:10.746Z,5.20
2023-03-16T06:31:40.884Z,5.20
2023-03-16T06:34:09.553Z,5.30
2023-03-16T06:36:39.950Z,5.30
2023-03-16T06:39:14.337Z,5.30
2023-03-16T06:41:44.568Z,5.40
2023-03-16T06:44:17.164Z,5.40
2023-03-16T06:46:57.634Z,5.40
2023-03-16T06:49:26.204Z,5.50
2023-03-16T06:51:55.127Z,5.50
2023-03-16T06:54:25.685Z,5.50
2023-03-16T06:56:54.498Z,5.50
2023-03-16T06:59:25.271Z,5.60
2023-03-16T07:01:53.928Z,5.60
2023-03-16T07:04:22.756Z,5.60
2023-03-16T07:06:51.495Z,5.70
2023-03-16T07:09:21.900Z,5.70
2023-03-16T07:11:52.606Z,5.70
2023-03-16T07:14:23.317Z,5.80
2023-03-16T07:16:54.539Z,5.70
2023-03-16T07:19:24.534Z,5.70
2023-03-16T07:21:54.170Z,5.80
2023-03-16T07:24:24.158Z,5.70
2023-03-16T07:26:53.094Z,5.70
2023-03-16T07:29:28.055Z,5.70
2023-03-16T07:31:58.569Z,5.70
2023-03-16T07:34:34.181Z,5.70
2023-03-16T07:37:03.592Z,5.70
2023-03-16T07:39:34.135Z,5.60
2023-03-16T07:42:09.126Z,5.70
2023-03-16T07:44:52.038Z,5.70
2023-03-16T07:47:25.144Z,5.60
2023-03-16T07:49:56.674Z,5.50
2023-03-16T07:52:25.699Z,5.50
2023-03-16T07:54:54.454Z,5.50
2023-03-16T07:57:23.462Z,5.50
2023-03-16T07:59:51.941Z,5.50
2023-03-16T08:02:22.640Z,5.50
2023-03-16T08:04:51.755Z,5.50
2023-03-16T08:07:20.367Z,5.60
2023-03-16T08:10:03.248Z,5.60
2023-03-16T08:12:41.708Z,5.60
2023-03-16T08:15:11.726Z,5.70
2023-03-16T08:17:42.766Z,5.80
2023-03-16T08:20:16.155Z,6.00
2023-03-16T08:22:46.333Z,6.00
2023-03-16T08:25:19.833Z,6.10
2023-03-16T08:27:58.263Z,6.20
2023-03-16T08:30:27.566Z,6.30
2023-03-16T08:33:14.813Z,6.30
2023-03-16T08:35:45.360Z,6.40
2023-03-16T08:38:16.053Z,6.50
2023-03-16T08:40:48.432Z,6.70
2023-03-16T08:43:19.065Z,6.60
2023-03-16T08:45:49.187Z,6.60
2023-03-16T08:48:21.093Z,6.70
2023-03-16T08:50:52.061Z,6.70
2023-03-16T08:53:21.015Z,6.70
2023-03-16T08:55:50.009Z,6.80
2023-03-16T08:58:18.485Z,6.80
2023-03-16T09:00:48.682Z,6.80
2023-03-16T09:03:18.078Z,6.80
2023-03-16T09:05:48.004Z,7.00
2023-03-16T09:08:16.729Z,7.00
2023-03-16T09:10:45.280Z,7.00
2023-03-16T09:13:14.240Z,7.20
2023-03-16T09:15:42.874Z,7.10
2023-03-16T09:18:11.909Z,7.10
2023-03-16T09:20:40.831Z,7.10
2023-03-16T09:23:10.716Z,7.10
2023-03-16T09:25:39.320Z,7.10
2023-03-16T09:28:08.555Z,7.20
2023-03-16T09:30:37.814Z,7.20
2023-03-16T09:33:07.818Z,7.30
2023-03-16T09:35:37.053Z,7.40
2023-03-16T09:38:06.864Z,7.20
2023-03-16T09:40:39.513Z,7.20
2023-03-16T09:43:20.033Z,7.30
2023-03-16T09:45:54.704Z,7.30
2023-03-16T09:48:25.128Z,7.40
2023-03-16T09:50:56.646Z,7.50
2023-03-16T09:53:29.664Z,7.60
2023-03-16T09:56:04.443Z,7.70
2023-03-16T09:58:34.143Z,7.80
2023-03-16T10:01:11.119Z,7.90
2023-03-16T10:04:09.434Z,8.00
2023-03-16T10:06:46.868Z,8.20
2023-03-16T10:09:28.377Z,8.40
2023-03-16T10:11:59.732Z,8.70
2023-03-16T10:14:34.554Z,8.90
2023-03-16T10:17:06.888Z,9.20
2023-03-16T10:19:41.946Z,9.50
2023-03-16T10:22:18.909Z,9.70
2023-03-16T10:25:00.400Z,9.80
2023-03-16T10:27:33.058Z,10.00
2023-03-16T10:30:03.562Z,10.00
2023-03-16T10:32:34.575Z,10.20
2023-03-16T10:35:08.250Z,10.40
2023-03-16T10:37:37.673Z,10.60
2023-03-16T10:40:12.541Z,10.90
2023-03-16T10:42:42.723Z,11.20
2023-03-16T10:45:24.393Z,11.50
2023-03-16T10:47:52.955Z,11.70
2023-03-16T10:50:27.694Z,11.80
2023-03-16T10:52:58.264Z,11.90
2023-03-16T10:55:30.624Z,12.00
2023-03-16T10:58:01.506Z,12.00
2023-03-16T11:00:36.111Z,12.00
2023-03-16T11:03:22.803Z,12.00
2023-03-16T11:06:00.672Z,11.90
2023-03-16T11:08:33.465Z,11.80
2023-03-16T11:11:11.794Z,11.70
2023-03-16T11:13:46.119Z,11.70
2023-03-16T11:16:30.480Z,11.60
2023-03-16T11:19:04.718Z,11.50
2023-03-16T11:21:42.148Z,11.40
2023-03-16T11:24:19.846Z,11.30
2023-03-16T11:26:59.500Z,11.30
2023-03-16T11:29:41.077Z,11.30
2023-03-16T11:32:15.626Z,11.20
2023-03-16T11:34:46.777Z,11.20
2023-03-16T11:37:22.603Z,11.10
2023-03-16T11:40:01.472Z,11.20
2023-03-16T11:42:35.428Z,11.20
2023-03-16T11:45:18.373Z,11.20
2023-03-16T11:48:11.073Z,11.30
2023-03-16T11:50:54.076Z,11.30
2023-03-16T11:53:34.092Z,11.50
2023-03-16T11:56:13.510Z,11.60
2023-03-16T11:58:58.814Z,11.70
2023-03-16T12:01:47.789Z,11.90
2023-03-16T12:04:45.000Z,12.00
2023-03-16T12:07:24.574Z,12.10
2023-03-16T12:10:10.829Z,12.20
2023-03-16T12:12:50.230Z,12.30
2023-03-16T12:15:29.981Z,12.50
2023-03-16T12:18:06.251Z,12.70
2023-03-16T12:20:42.942Z,12.80
2023-03-16T12:23:15.889Z,13.10
2023-03-16T12:25:49.192Z,13.30
2023-03-16T12:28:23.884Z,13.50
2023-03-16T12:31:01.675Z,13.80
2023-03-16T12:33:45.088Z,14.20
2023-03-16T12:36:38.938Z,14.40
2023-03-16T12:39:09.913Z,14.60
2023-03-16T12:41:48.970Z,14.80
2023-03-16T12:44:21.269Z,15.00
2023-03-16T12:46:59.207Z,14.90
2023-03-16T12:49:34.087Z,14.90
2023-03-16T12:52:04.877Z,15.00
2023-03-16T12:54:33.723Z,15.00
2023-03-16T12:57:04.686Z,15.10
2023-03-16T12:59:41.686Z,15.10
2023-03-16T13:02:16.520Z,15.30
2023-03-16T13:04:51.768Z,15.30
2023-03-16T13:07:23.812Z,15.20
2023-03-16T13:09:57.169Z,15.40
2023-03-16T13:12:27.836Z,15.70
2023-03-16T13:14:57.074Z,16.10
2023-03-16T13:17:32.006Z,16.50
2023-03-16T13:20:30.770Z,16.90
2023-03-16T13:23:20.839Z,17.20
2023-03-16T13:26:11.579Z,17.60
2023-03-16T13:28:41.112Z,17.70
2023-03-16T13:31:25.624Z,18.00
2023-03-16T13:33:59.797Z,18.00
2023-03-16T13:36:31.811Z,18.00
2023-03-16T13:39:08.110Z,17.80
2023-03-16T13:41:36.761Z,17.70
2023-03-16T13:44:06.215Z,17.70
2023-03-16T13:46:34.679Z,17.60
2023-03-16T13:49:03.234Z,17.40
2023-03-16T13:51:37.556Z,17.50
2023-03-16T13:54:17.012Z,17.50
2023-03-16T13:56:45.610Z,17.70
2023-03-16T13:59:15.651Z,17.90
2023-03-16T14:01:45.807Z,18.00
2023-03-16T14:04:18.695Z,17.80
2023-03-16T14:06:56.982Z,17.80
2023-03-16T14:09:29.180Z,17.70
2023-03-16T14:11:58.653Z,17.70
2023-03-16T14:14:30.739Z,17.80
2023-03-16T14:17:05.364Z,17.90
2023-03-16T14:19:46.222Z,17.80
2023-03-16T14:22:19.350Z,18.00
2023-03-16T14:24:54.884Z,18.00
2023-03-16T14:27:29.323Z,18.00
2023-03-16T14:30:02.767Z,17.80
2023-03-16T14:32:34.242Z,17.40
2023-03-16T14:35:12.965Z,17.40
2023-03-16T14:37:43.671Z,17.10
2023-03-16T14:40:25.485Z,17.30
2023-03-16T14:42:55.984Z,17.30
2023-03-16T14:45:27.807Z,17.10
2023-03-16T14:48:04.616Z,17.20
2023-03-16T14:50:34.657Z,17.20
2023-03-16T14:53:06.677Z,17.00
2023-03-16T14:55:36.317Z,16.90
2023-03-16T14:58:05.349Z,16.90
2023-03-16T15:00:42.811Z,16.90
2023-03-16T15:03:19.369Z,16.90
2023-03-16T15:05:50.195Z,16.70
2023-03-16T15:08:26.256Z,16.60
2023-03-16T15:10:56.174Z,16.40
2023-03-16T15:13:52.614Z,16.30
2023-03-16T15:16:23.088Z,16.00
2023-03-16T15:18:52.784Z,15.70
2023-03-16T15:21:26.475Z,15.60
2023-03-16T15:23:58.524Z,15.50
2023-03-16T15:26:29.657Z,15.40
2023-03-16T15:28:58.948Z,15.30
2023-03-16T15:31:27.534Z,15.30
2023-03-16T15:33:56.123Z,15.30
2023-03-16T15:36:24.957Z,15.40
2023-03-16T15:38:56.836Z,15.40
2023-03-16T15:41:30.084Z,15.40
2023-03-16T15:44:03.271Z,15.40
2023-03-16T15:46:31.870Z,15.40
2023-03-16T15:49:00.352Z,15.30
2023-03-16T15:51:30.722Z,15.30
2023-03-16T15:54:01.843Z,15.30
2023-03-16T15:56:41.238Z,15.40
2023-03-16T15:59:18.094Z,15.30
2023-03-16T16:01:48.377Z,15.20
2023-03-16T16:04:19.721Z,15.10
2023-03-16T16:06:49.570Z,15.10
2023-03-16T16:09:19.567Z,15.00
2023-03-16T16:11:48.960Z,14.90
2023-03-16T16:14:22.026Z,14.80
2023-03-16T16:16:50.641Z,14.80
2023-03-16T16:19:19.331Z,14.70
2023-03-16T16:21:47.950Z,14.70
2023-03-16T16:24:18.187Z,14.70
2023-03-16T16:26:54.416Z,14.70
2023-03-16T16:29:25.234Z,14.60
2023-03-16T16:31:54.017Z,14.50
2023-03-16T16:34:25.189Z,14.50
2023-03-16T16:36:54.597Z,14.60
2023-03-16T16:39:23.707Z,14.40
2023-03-16T16:41:56.514Z,14.40
2023-03-16T16:44:31.997Z,14.30
2023-03-16T16:47:03.373Z,14.30
2023-03-16T16:49:32.575Z,14.30
2023-03-16T16:52:01.086Z,14.20
2023-03-16T16:54:30.991Z,14.10
2023-03-16T16:57:01.703Z,14.10
2023-03-16T16:59:32.986Z,13.90
2023-03-16T17:02:03.223Z,13.90
2023-03-16T17:04:31.874Z,13.80
2023-03-16T17:07:02.677Z,13.70
2023-03-16T17:09:31.728Z,13.60
2023-03-16T17:12:03.034Z,13.50
2023-03-16T17:14:32.212Z,13.40
2023-03-16T17:17:03.526Z,13.30
2023-03-16T17:19:32.805Z,13.30
2023-03-16T17:22:01.400Z,13.10
2023-03-16T17:24:31.274Z,13.00
2023-03-16T17:27:02.100Z,12.90
2023-03-16T17:29:33.097Z,12.80
2023-03-16T17:32:02.362Z,12.70
2023-03-16T17:34:33.659Z,12.70
2023-03-16T17:37:02.735Z,12.50
2023-03-16T17:39:33.728Z,12.50
2023-03-16T17:42:07.031Z,12.30
2023-03-16T17:44:38.348Z,12.20
2023-03-16T17:47:14.723Z,12.10
2023-03-16T17:49:44.794Z,12.10
2023-03-16T17:52:18.055Z,12.00
2023-03-16T17:54:46.994Z,12.00
2023-03-16T17:57:20.770Z,11.80
2023-03-16T17:59:49.993Z,11.80
2023-03-16T18:02:42.051Z,11.70
2023-03-16T18:05:18.285Z,11.60
2023-03-16T18:07:47.186Z,11.60
2023-03-16T18:10:17.842Z,11.50
2023-03-16T18:12:49.127Z,11.40
2023-03-16T18:15:19.586Z,11.40
2023-03-16T18:17:49.626Z,11.30
2023-03-16T18:20:24.000Z,11.30
2023-03-16T18:22:52.524Z,11.20
2023-03-16T18:25:31.507Z,11.20
2023-03-16T18:28:02.657Z,11.20
2023-03-16T18:30:32.754Z,11.10
2023-03-16T18:33:02.748Z,11.00
2023-03-16T18:35:31.975Z,11.00
2023-03-16T18:38:01.052Z,10.90
2023-03-16T18:40:30.347Z,10.90
2023-03-16T18:42:59.208Z,10.90
2023-03-16T18:45:29.590Z,10.80
2023-03-16T18:47:58.552Z,10.80
2023-03-16T18:50:30.109Z,10.70
2023-03-16T18:52:59.269Z,10.80
2023-03-16T18:55:28.794Z,10.70
2023-03-16T18:57:58.656Z,10.70
2023-03-16T19:00:29.853Z,10.60
2023-03-16T19:03:01.382Z,10.60
2023-03-16T19:05:35.775Z,10.60
2023-03-16T19:08:06.257Z,10.50
2023-03-16T19:10:37.021Z,10.50
2023-03-16T19:13:12.306Z,10.40
2023-03-16T19:15:42.382Z,10.40
2023-03-16T19:18:10.926Z,10.40
2023-03-16T19:20:41.076Z,10.40
2023-03-16T19:23:18.904Z,10.40
2023-03-16T19:25:47.989Z,10.40
2023-03-16T19:28:19.520Z,10.40
2023-03-16T19:30:49.950Z,10.40
2023-03-16T19:33:25.605Z,10.30
2023-03-16T19:35:54.971Z,10.30
2023-03-16T19:38:24.806Z,10.30
2023-03-16T19:40:56.366Z,10.30
2023-03-16T19:43:26.384Z,10.30
2023-03-16T19:45:56.773Z,10.30
2023-03-16T19:48:32.781Z,10.30
2023-03-16T19:51:01.803Z,10.30
2023-03-16T19:53:30.293Z,10.20
2023-03-16T19:55:58.757Z,10.20
2023-03-16T19:58:32.245Z,10.20
2023-03-16T20:01:02.465Z,10.20
2023-03-16T20:03:39.294Z,10.20
2023-03-16T20:06:11.024Z,10.20
2023-03-16T20:08:39.664Z,10.10
2023-03-16T20:11:14.838Z,10.10
2023-03-16T20:13:43.608Z,10.20
2023-03-16T20:16:17.189Z,10.20
2023-03-16T20:18:47.176Z,10.10
2023-03-16T20:21:17.506Z,10.20
2023-03-16T20:23:46.186Z,10.10
2023-03-16T20:26:18.816Z,10.10
2023-03-16T20:28:48.330Z,10.10
2023-03-16T20:31:21.563Z,10.00
2023-03-16T20:33:52.026Z,10.10
2023-03-16T20:36:22.883Z,10.00
2023-03-16T20:38:51.727Z,10.00
2023-03-16T20:41:26.254Z,10.00
2023-03-16T20:43:55.624Z,10.00
2023-03-16T20:46:27.382Z,10.00
2023-03-16T20:48:56.332Z,10.00
2023-03-16T20:51:24.956Z,10.00
2023-03-16T20:53:53.669Z,9.90
2023-03-16T20:56:24.503Z,9.90
2023-03-16T20:58:55.973Z,10.00
2023-03-16T21:01:27.375Z,9.90
2023-03-16T21:03:57.267Z,9.80
2023-03-16T21:06:28.545Z,9.80
2023-03-16T21:08:58.681Z,9.80
2023-03-16T21:11:33.093Z,9.80
2023-03-16T21:14:01.845Z,9.80
2023-03-16T21:16:32.136Z,9.70
2023-03-16T21:19:01.209Z,9.70
2023-03-16T21:21:30.039Z,9.70
2023-03-16T21:23:59.258Z,9.70
2023-03-16T21:26:28.946Z,9.70
2023-03-16T21:29:00.424Z,9.60
2023-03-16T21:31:31.348Z,9.60
2023-03-16T21:34:00.720Z,9.60
2023-03-16T21:36:29.647Z,9.60
2023-03-16T21:38:58.239Z,9.60
2023-03-16T21:41:27.178Z,9.60
2023-03-16T21:43:55.886Z,9.50
2023-03-16T21:46:25.496Z,9.50
2023-03-16T21:48:56.689Z,9.50
2023-03-16T21:51:28.560Z,9.50
2023-03-16T21:53:57.985Z,9.40
2023-03-16T21:56:27.402Z,9.40
2023-03-16T21:58:56.093Z,9.30
2023-03-16T22:01:26.644Z,9.30
2023-03-16T22:03:58.404Z,9.30
2023-03-16T22:06:28.675Z,9.20
2023-03-16T22:08:57.937Z,9.20
2023-03-16T22:11:28.233Z,9.20
2023-03-16T22:13:58.473Z,9.20
2023-03-16T22:16:29.965Z,9.20
2023-03-16T22:18:59.934Z,9.10
2023-03-16T22:21:32.258Z,9.10
2023-03-16T22:24:01.796Z,9.20
2023-03-16T22:26:30.927Z,9.10
2023-03-16T22:29:01.468Z,9.10
2023-03-16T22:31:33.750Z,9.00
2023-03-16T22:34:04.595Z,9.10
2023-03-16T22:36:34.466Z,9.10
2023-03-16T22:39:06.099Z,9.10
2023-03-16T22:41:35.127Z,9.10
2023-03-16T22:44:04.113Z,9.10
2023-03-16T22:46:32.624Z,9.10
2023-03-16T22:49:01.110Z,9.10
2023-03-16T22:51:34.261Z,9.10
2023-03-16T22:54:05.750Z,9.10
2023-03-16T22:56:35.687Z,9.10
2023-03-16T22:59:07.468Z,9.10
2023-03-16T23:01:39.529Z,9.10
2023-03-16T23:04:15.449Z,9.10
2023-03-16T23:06:45.725Z,9.10
2023-03-16T23:09:15.339Z,9.10
2023-03-16T23:11:45.801Z,9.10
2023-03-16T23:14:15.933Z,9.00
2023-03-16T23:16:45.208Z,9.00
2023-03-16T23:19:25.040Z,9.00
2023-03-16T23:21:56.866Z,9.00
2023-03-16T23:24:25.446Z,9.00
2023-03-16T23:26:54.929Z,9.00
2023-03-16T23:29:24.164Z,9.00
2023-03-16T23:31:53.571Z,9.00
2023-03-16T23:34:25.174Z,9.00
2023-03-16T23:36:55.307Z,9.00
2023-03-16T23:39:23.758Z,9.00
2023-03-16T23:41:53.274Z,9.00
2023-03-16T23:44:25.294Z,9.00
2023-03-16T23:46:54.256Z,9.00
2023-03-16T23:49:25.275Z,9.00
2023-03-16T23:51:58.749Z,9.00
2023-03-16T23:54:29.703Z,8.90
2023-03-16T23:56:58.452Z,8.90
2023-03-16T23:59:27.787Z,8.90
